Main page
METAR-TAF:

METAR-TAF

Airports :

Orio al Serio International Airport

Bergamo, Italy

latitude: 45-40N, longitude: 009-42E, elevation: 238 m

Current weather observation

The report was made 37 minutes ago, at 12:50 UTC
Wind 7 kt from the South/Southwest, varying between East and West/Southwest
Temperature 22°C
Humidity 33%
Pressure 1019 hPa
Visibility 10 km or more
no clouds below 1500 m and no cumulonimbus

METAR: LIME 211250Z 20007KT 090V250 CAVOK 22/05 Q1019 NOSIG

Time: 15:27 (13:27 UTC)

Forecast

The report was made 2 hours and 27 minutes ago, at 11:00 UTC
Forecast valid from 21 at 12 UTC to 22 at 12 UTC
Wind 5 kt from variable directions
Visibility 10 km or more
Scattered clouds at a height of 9000 ft

TAF: LIME 211100Z 2112/2212 VRB05KT 9999 SCT090

Weather observations and forecasts of more than 4000 airports (METAR and TAF reports).

The available stations are represented by yellow and red dots on the map.

Hover mouse over dot to see the name of the station.

Then click to see weather observations and forecasts.

To change the map : click on the green buttons with a black cross to zoom in, on the green button with a dash to zoom out, or on the green arrows for adjacent maps.


METAR-TAF: